Time;durP1;ratioP1;P1;durP2;ratioP2;P2;SDS_P1;SDS_P2;PMS_P1;PMS_P2;Temp;Humidity;BMP_temperature;BMP_pressure;BME280_temperature;BME280_humidity;BME280_pressure;Samples;Min_cycle;Max_cycle;Signal;HPM_P1;HPM_P2
2023/03/25 00:02:22;;;;;;;8.65;3.30;;;;;;;7.22;100.00;95858.09;4936958;29;20038;-71
2023/03/25 00:04:51;;;;;;;3.60;3.25;;;;;;;7.07;100.00;95849.63;4950725;29;20038;-71
2023/03/25 00:07:18;;;;;;;6.75;3.50;;;;;;;7.02;100.00;95852.59;4954618;29;20118;-71
2023/03/25 00:09:44;;;;;;;3.58;3.30;;;;;;;6.92;100.00;95851.63;4950050;29;20472;-71
2023/03/25 00:12:09;;;;;;;5.72;3.65;;;;;;;6.88;100.00;95853.63;4947700;29;20031;-71
2023/03/25 00:14:34;;;;;;;5.68;4.55;;;;;;;6.85;100.00;95863.47;4956979;29;20031;-71
2023/03/25 00:17:00;;;;;;;9.55;5.70;;;;;;;6.78;100.00;95864.91;4942834;29;20492;-71
2023/03/25 00:19:26;;;;;;;11.55;6.03;;;;;;;6.73;100.00;95862.59;4949422;29;20590;-71
2023/03/25 00:21:52;;;;;;;5.32;4.78;;;;;;;6.69;100.00;95866.41;4957176;29;20365;-71
2023/03/25 00:24:18;;;;;;;8.15;4.00;;;;;;;6.73;100.00;95865.22;4949506;29;20031;-71
2023/03/25 00:26:45;;;;;;;7.95;5.45;;;;;;;6.69;100.00;95869.03;4951640;29;20027;-71
2023/03/25 00:29:12;;;;;;;7.43;4.38;;;;;;;6.57;100.00;95878.63;4947048;29;20035;-71
2023/03/25 00:31:38;;;;;;;5.80;4.05;;;;;;;6.47;100.00;95875.00;4951460;29;20058;-71
2023/03/25 00:34:06;;;;;;;5.97;4.55;;;;;;;6.46;100.00;95879.41;4943525;29;20146;-72
2023/03/25 00:36:32;;;;;;;13.32;5.75;;;;;;;6.51;100.00;95877.28;4933966;29;20032;-71
2023/03/25 00:38:57;;;;;;;7.53;5.35;;;;;;;6.54;100.00;95876.22;4947602;29;20031;-71
2023/03/25 00:41:24;;;;;;;8.55;4.57;;;;;;;6.55;100.00;95877.91;4952721;29;20094;-71
2023/03/25 00:43:51;;;;;;;4.20;3.80;;;;;;;6.54;100.00;95877.06;4949556;29;20408;-69
2023/03/25 00:46:17;;;;;;;5.35;3.60;;;;;;;6.51;100.00;95877.28;4943858;29;20700;-69
2023/03/25 00:48:43;;;;;;;5.45;3.80;;;;;;;6.47;100.00;95875.00;4944476;29;20111;-70
2023/03/25 00:51:12;;;;;;;3.42;3.03;;;;;;;6.30;100.00;95880.53;4951018;29;20019;-70
2023/03/25 00:53:38;;;;;;;7.30;3.47;;;;;;;6.29;100.00;95873.59;4952819;29;20078;-69
2023/03/25 00:56:04;;;;;;;3.38;3.08;;;;;;;6.34;100.00;95869.84;4950270;29;20027;-69
2023/03/25 00:58:30;;;;;;;4.70;3.47;;;;;;;6.29;100.00;95871.00;4951953;29;20027;-69
2023/03/25 01:00:56;;;;;;;4.05;3.50;;;;;;;6.24;100.00;95877.53;4953120;29;20110;-69
2023/03/25 01:03:23;;;;;;;4.63;3.53;;;;;;;6.23;100.00;95878.47;4949166;29;20026;-70
2023/03/25 01:05:53;;;;;;;5.28;3.50;;;;;;;6.14;100.00;95866.88;4953628;29;20038;-70
2023/03/25 01:08:24;;;;;;;6.18;3.38;;;;;;;6.04;100.00;95868.47;4946412;29;20047;-69
2023/03/25 01:10:53;;;;;;;6.07;3.25;;;;;;;5.98;100.00;95870.56;4948516;29;20420;-69
2023/03/25 01:13:19;;;;;;;4.75;3.80;;;;;;;6.31;100.00;95883.97;4948306;28;20040;-70
2023/03/25 01:15:44;;;;;;;4.20;3.72;;;;;;;6.08;100.00;95886.44;4927514;29;20031;-69
2023/03/25 01:18:10;;;;;;;6.80;4.03;;;;;;;6.06;100.00;95882.25;4947311;28;20027;-69
2023/03/25 01:20:35;;;;;;;5.55;4.82;;;;;;;6.00;100.00;95886.16;4942994;29;20059;-70
2023/03/25 01:23:01;;;;;;;8.30;6.38;;;;;;;5.97;100.00;95888.97;4945242;29;20042;-69
2023/03/25 01:25:26;;;;;;;8.60;5.97;;;;;;;5.91;100.00;95884.16;4939008;28;20493;-70
2023/03/25 01:27:51;;;;;;;10.07;6.20;;;;;;;5.84;100.00;95883.75;4941521;29;20063;-69
2023/03/25 01:30:17;;;;;;;10.75;7.20;;;;;;;5.81;100.00;95871.75;4953097;29;20039;-70
2023/03/25 01:32:42;;;;;;;9.80;6.60;;;;;;;5.81;100.00;95879.59;4942873;29;20668;-70
2023/03/25 01:35:09;;;;;;;8.18;6.13;;;;;;;5.83;100.00;95874.25;4933446;29;20027;-69
2023/03/25 01:37:35;;;;;;;6.90;5.25;;;;;;;5.86;100.00;95872.25;4953693;29;20127;-69
2023/03/25 01:40:03;;;;;;;5.43;4.40;;;;;;;5.81;100.00;95876.97;4955769;29;20031;-70
2023/03/25 01:42:30;;;;;;;7.25;5.00;;;;;;;5.85;100.00;95893.25;4951635;29;20037;-70
2023/03/25 01:45:22;;;;;;;7.40;5.20;;;;;;;5.81;100.00;95884.81;4942235;29;20708;-70
2023/03/25 01:47:53;;;;;;;5.22;4.13;;;;;;;5.87;100.00;95884.38;4951249;29;20132;-70
2023/03/25 01:50:19;;;;;;;4.45;4.05;;;;;;;5.92;100.00;95886.69;4946152;29;20026;-70
2023/03/25 01:52:49;;;;;;;8.80;4.57;;;;;;;5.91;100.00;95884.16;4952132;29;20027;-70
2023/03/25 01:55:16;;;;;;;12.10;5.75;;;;;;;5.99;100.00;95889.69;4949207;29;20047;-69
2023/03/25 01:57:45;;;;;;;6.60;5.13;;;;;;;6.01;100.00;95888.66;4950202;28;20083;-69
2023/03/25 02:00:12;;;;;;;5.25;4.53;;;;;;;6.04;100.00;95889.38;4951127;29;20032;-69
2023/03/25 02:02:38;;;;;;;4.45;3.63;;;;;;;6.08;100.00;95886.44;4926018;29;20123;-70
2023/03/25 02:05:16;;;;;;;5.15;4.00;;;;;;;6.09;100.00;95888.13;4943069;29;20206;-70
2023/03/25 02:07:46;;;;;;;6.28;4.15;;;;;;;6.13;100.00;95883.53;4950539;29;20059;-70
2023/03/25 02:10:13;;;;;;;6.30;5.70;;;;;;;6.13;100.00;95886.13;4952002;29;20030;-69
2023/03/25 02:12:39;;;;;;;5.75;3.50;;;;;;;6.09;100.00;95887.31;4939888;28;20102;-70
2023/03/25 02:15:07;;;;;;;5.82;4.00;;;;;;;6.20;100.00;95884.75;4946441;29;20038;-71
2023/03/25 02:17:51;;;;;;;6.40;4.13;;;;;;;6.20;100.00;95883.91;4946113;29;20038;-71
2023/03/25 02:20:46;;;;;;;6.82;4.18;;;;;;;6.32;100.00;95887.44;4950197;29;20042;-71
2023/03/25 02:23:27;;;;;;;4.40;4.00;;;;;;;6.28;100.00;95876.34;4945234;29;20035;-71
2023/03/25 02:26:35;;;;;;;4.90;4.30;;;;;;;6.26;100.00;95863.38;4947097;29;20039;-71
2023/03/25 02:29:23;;;;;;;6.13;4.10;;;;;;;6.22;100.00;95874.19;4954639;29;20039;-71
2023/03/25 02:32:26;;;;;;;5.32;4.82;;;;;;;6.20;100.00;95874.28;4922409;28;20078;-71
2023/03/25 02:35:38;;;;;;;8.80;5.68;;;;;;;6.23;100.00;95870.63;4954321;28;20057;-71
2023/03/25 02:38:40;;;;;;;7.30;4.90;;;;;;;6.26;100.00;95860.75;4949484;29;20059;-71
2023/03/25 02:41:15;;;;;;;5.25;4.03;;;;;;;6.32;100.00;95864.72;4942198;28;20036;-71
2023/03/25 02:43:46;;;;;;;4.80;4.35;;;;;;;6.28;100.00;95855.44;4945132;29;20548;-71
2023/03/25 02:46:16;;;;;;;4.25;3.65;;;;;;;6.26;100.00;95852.91;4954699;29;20067;-71
2023/03/25 02:48:56;;;;;;;5.32;4.50;;;;;;;6.26;100.00;95852.91;4952534;29;20122;-71
2023/03/25 02:51:32;;;;;;;4.63;3.88;;;;;;;6.28;100.00;95848.41;4953296;28;20487;-71
2023/03/25 02:54:06;;;;;;;8.10;4.88;;;;;;;6.24;100.00;95844.34;4950522;29;20051;-71
2023/03/25 02:56:32;;;;;;;5.60;5.03;;;;;;;6.19;100.00;95849.09;4955294;29;20055;-71
2023/03/25 02:58:59;;;;;;;9.27;6.00;;;;;;;6.15;100.00;95864.16;4948327;29;20035;-71
2023/03/25 03:01:25;;;;;;;8.52;5.40;;;;;;;6.22;100.00;95850.66;4946828;29;20064;-71
2023/03/25 03:03:52;;;;;;;6.13;5.18;;;;;;;6.27;100.00;95859.00;4952689;29;20059;-70
2023/03/25 03:06:20;;;;;;;5.82;4.90;;;;;;;6.29;100.00;95864.94;4953006;29;20031;-71
2023/03/25 03:09:04;;;;;;;8.23;6.22;;;;;;;6.26;100.00;95863.38;4953679;29;20053;-71
2023/03/25 03:11:50;;;;;;;6.80;6.05;;;;;;;6.24;100.00;95873.09;4961454;28;20062;-71
2023/03/25 03:14:27;;;;;;;10.30;5.85;;;;;;;6.26;100.00;95858.16;4951346;29;20037;-71
2023/03/25 03:17:06;;;;;;;8.48;5.97;;;;;;;6.27;100.00;95869.44;4944343;29;20035;-71
2023/03/25 03:19:45;;;;;;;7.90;5.78;;;;;;;6.28;100.00;95877.16;4951419;29;20028;-70
2023/03/25 03:22:33;;;;;;;7.85;5.75;;;;;;;6.43;100.00;95869.16;4934850;29;20584;-71
2023/03/25 03:25:01;;;;;;;9.35;5.53;;;;;;;6.42;100.00;95877.97;4951496;29;20019;-71
2023/03/25 03:27:32;;;;;;;8.23;4.78;;;;;;;6.36;100.00;95878.41;4957476;29;20028;-71
2023/03/25 03:30:23;;;;;;;5.70;4.50;;;;;;;6.31;100.00;95873.50;4947651;29;20023;-71
2023/03/25 03:32:52;;;;;;;6.90;4.40;;;;;;;6.33;100.00;95869.00;4942648;29;20622;-71
2023/03/25 03:35:26;;;;;;;4.80;4.25;;;;;;;6.24;100.00;95859.22;4951200;29;20022;-71
2023/03/25 03:37:59;;;;;;;6.70;4.25;;;;;;;6.24;100.00;95861.84;4934043;29;20026;-70
2023/03/25 03:40:28;;;;;;;9.52;4.10;;;;;;;6.24;100.00;95848.75;4951230;29;20027;-71
2023/03/25 03:42:59;;;;;;;6.78;3.80;;;;;;;6.17;100.00;95845.75;4953946;29;20079;-70
2023/03/25 03:45:30;;;;;;;7.97;4.05;;;;;;;6.10;100.00;95839.31;4947118;29;20038;-70
2023/03/25 03:47:58;;;;;;;4.10;3.70;;;;;;;6.04;100.00;95843.19;4902276;29;1163100;-71
2023/03/25 03:50:26;;;;;;;5.85;3.58;;;;;;;6.05;100.00;95852.69;4955946;29;20035;-71
2023/03/25 03:53:06;;;;;;;6.20;4.13;;;;;;;5.92;100.00;95860.53;4955595;29;20079;-70
2023/03/25 03:55:40;;;;;;;7.28;3.78;;;;;;;5.86;100.00;95866.22;4948294;29;20047;-71
2023/03/25 03:58:21;;;;;;;4.60;3.95;;;;;;;5.84;100.00;95874.16;4932733;29;20019;-71
2023/03/25 04:00:58;;;;;;;4.30;3.83;;;;;;;5.84;100.00;95875.91;4939555;29;20072;-71
2023/03/25 04:03:37;;;;;;;5.00;3.70;;;;;;;5.83;100.00;95877.72;4947223;29;20028;-71
2023/03/25 04:06:15;;;;;;;6.72;3.30;;;;;;;5.87;100.00;95888.78;4950985;29;20027;-71
2023/03/25 04:08:58;;;;;;;3.83;3.53;;;;;;;5.97;100.00;95881.13;4946060;29;20027;-71
2023/03/25 04:11:31;;;;;;;4.88;3.45;;;;;;;5.93;100.00;95879.66;4942377;29;20076;-71
2023/03/25 04:13:59;;;;;;;8.52;3.85;;;;;;;5.89;100.00;95886.91;4950349;28;20027;-71
2023/03/25 04:16:27;;;;;;;5.28;3.88;;;;;;;5.88;100.00;95882.63;4951370;29;20036;-71
2023/03/25 04:18:53;;;;;;;5.05;3.53;;;;;;;5.86;100.00;95881.91;4957315;29;20035;-71
2023/03/25 04:21:20;;;;;;;4.72;3.65;;;;;;;5.85;100.00;95870.59;4939367;29;20032;-71
2023/03/25 04:23:46;;;;;;;7.22;3.47;;;;;;;5.89;100.00;95876.44;4950402;29;20035;-70
2023/03/25 04:26:14;;;;;;;7.18;3.80;;;;;;;5.87;100.00;95873.13;4957512;29;20029;-71
2023/03/25 04:28:43;;;;;;;10.30;3.50;;;;;;;5.83;100.00;95877.72;4946384;29;20049;-71
2023/03/25 04:31:15;;;;;;;7.72;3.50;;;;;;;5.83;100.00;95882.94;4941556;28;20056;-71
2023/03/25 04:33:45;;;;;;;9.48;4.00;;;;;;;5.84;100.00;95874.16;4941437;29;20036;-71
2023/03/25 04:36:12;;;;;;;4.85;3.70;;;;;;;5.91;100.00;95876.31;4950622;29;20031;-70
2023/03/25 04:38:37;;;;;;;6.05;3.78;;;;;;;5.83;100.00;95888.16;4947353;29;20110;-71
2023/03/25 04:41:05;;;;;;;8.85;3.60;;;;;;;5.85;100.00;95891.50;4950671;29;20031;-71
2023/03/25 04:43:31;;;;;;;5.20;4.20;;;;;;;5.83;100.00;95897.75;4945853;29;20515;-71
2023/03/25 04:45:58;;;;;;;7.50;4.35;;;;;;;5.84;100.00;95900.28;4952245;29;20059;-71
2023/03/25 04:48:30;;;;;;;10.68;4.15;;;;;;;5.84;100.00;95902.03;4951004;28;20397;-71
2023/03/25 04:51:02;;;;;;;6.10;4.20;;;;;;;5.83;100.00;95916.06;4952139;29;20118;-70
2023/03/25 04:53:28;;;;;;;6.57;4.03;;;;;;;5.80;100.00;95911.03;4949350;29;20184;-70
2023/03/25 04:55:54;;;;;;;4.13;3.72;;;;;;;5.86;100.00;95916.69;4949012;29;20047;-70
2023/03/25 04:58:20;;;;;;;5.00;3.85;;;;;;;6.06;100.00;95930.16;4950653;29;20034;-70
2023/03/25 05:00:50;;;;;;;6.45;3.30;;;;;;;5.95;100.00;95932.66;4946930;29;20496;-70
2023/03/25 05:03:16;;;;;;;7.85;3.90;;;;;;;6.08;100.00;95936.13;4951458;29;20062;-70
2023/03/25 05:05:41;;;;;;;7.53;4.50;;;;;;;5.88;100.00;95938.31;4945558;29;20035;-71
2023/03/25 05:08:07;;;;;;;4.75;4.22;;;;;;;5.80;100.00;95950.25;4942813;29;20028;-71
2023/03/25 05:10:35;;;;;;;7.30;4.38;;;;;;;5.84;100.00;95942.09;4956250;29;20027;-71
2023/03/25 05:13:05;;;;;;;8.20;4.85;;;;;;;5.86;100.00;95957.69;4955317;29;20019;-71
2023/03/25 05:15:38;;;;;;;7.72;4.10;;;;;;;5.95;100.00;95958.78;4946343;28;20026;-70
2023/03/25 05:18:05;;;;;;;7.75;4.22;;;;;;;5.85;100.00;95948.13;4949806;29;20033;-71
2023/03/25 05:20:33;;;;;;;7.07;5.00;;;;;;;5.74;100.00;95947.13;4946358;29;20047;-71
2023/03/25 05:22:59;;;;;;;5.18;4.10;;;;;;;5.67;100.00;95940.66;4953413;29;20069;-71
2023/03/25 05:25:25;;;;;;;7.80;4.28;;;;;;;5.59;100.00;95948.16;4939470;29;20015;-71
2023/03/25 05:27:50;;;;;;;11.13;4.60;;;;;;;5.69;100.00;95941.38;4938538;29;20039;-71
2023/03/25 05:30:16;;;;;;;10.75;4.82;;;;;;;5.58;100.00;95936.03;4939674;29;20019;-70
2023/03/25 05:32:44;;;;;;;5.18;4.30;;;;;;;5.54;100.00;95930.22;4939283;29;20031;-71
2023/03/25 05:35:09;;;;;;;5.47;4.07;;;;;;;5.50;100.00;95925.28;4932733;29;20019;-71
2023/03/25 05:37:36;;;;;;;8.20;4.55;;;;;;;5.48;100.00;95916.72;4946497;29;20031;-71
2023/03/25 05:40:03;;;;;;;8.00;5.20;;;;;;;5.52;100.00;95913.78;4954568;29;20032;-70
2023/03/25 05:42:28;;;;;;;8.10;4.68;;;;;;;5.47;100.00;95928.94;4956105;29;20019;-71
2023/03/25 05:44:53;;;;;;;7.50;4.13;;;;;;;5.45;100.00;95925.59;4956241;29;20034;-70
2023/03/25 05:47:22;;;;;;;6.75;4.47;;;;;;;5.47;100.00;95933.34;4955886;29;20598;-71
2023/03/25 05:49:48;;;;;;;6.43;3.90;;;;;;;5.47;100.00;95939.38;4956476;29;20034;-71
2023/03/25 05:52:15;;;;;;;6.38;3.75;;;;;;;5.49;100.00;95934.06;4954902;29;20081;-71
2023/03/25 05:54:41;;;;;;;8.68;4.50;;;;;;;5.42;100.00;95938.88;4955863;29;20114;-71
2023/03/25 05:57:08;;;;;;;3.88;3.55;;;;;;;5.43;100.00;95943.16;4937481;29;20023;-71
2023/03/25 05:59:37;;;;;;;8.48;4.10;;;;;;;5.50;100.00;95943.56;4949604;29;20385;-71
2023/03/25 06:02:11;;;;;;;6.68;4.15;;;;;;;5.57;100.00;95947.44;4952784;29;20054;-71
2023/03/25 06:04:40;;;;;;;5.43;3.63;;;;;;;5.92;100.00;95938.09;4953615;29;20035;-70
2023/03/25 06:07:13;;;;;;;7.03;3.63;;;;;;;5.88;100.00;95948.78;4960140;29;20385;-71
2023/03/25 06:09:45;;;;;;;6.28;3.75;;;;;;;6.20;100.00;95947.47;4959813;29;20023;-71
2023/03/25 06:12:18;;;;;;;9.35;4.15;;;;;;;6.04;100.00;95949.50;4958314;29;20102;-71
2023/03/25 06:14:45;;;;;;;6.45;4.45;;;;;;;5.94;100.00;95944.06;4960185;29;20719;-71
2023/03/25 06:17:14;;;;;;;8.10;3.92;;;;;;;5.97;100.00;95944.69;4946831;29;20046;-71
2023/03/25 06:19:40;;;;;;;9.88;5.18;;;;;;;6.04;100.00;95934.66;4948914;29;20517;-71
2023/03/25 06:22:09;;;;;;;6.60;4.32;;;;;;;6.04;100.00;95941.66;4957984;28;20019;-71
2023/03/25 06:24:36;;;;;;;10.35;4.40;;;;;;;6.05;100.00;95951.16;4948503;29;20027;-70
2023/03/25 06:27:08;;;;;;;14.00;6.22;;;;;;;6.02;100.00;95954.84;4941640;29;20925;-71
2023/03/25 06:29:36;;;;;;;10.68;6.20;;;;;;;5.96;100.00;95957.84;4953130;29;20111;-70
2023/03/25 06:32:02;;;;;;;9.73;5.07;;;;;;;5.97;100.00;95952.53;4947595;29;20075;-71
2023/03/25 06:34:31;;;;;;;18.30;10.57;;;;;;;5.92;100.00;95965.09;4954657;29;20512;-70
2023/03/25 06:36:57;;;;;;;9.55;7.63;;;;;;;5.95;100.00;95956.16;4949992;29;20429;-71
2023/03/25 06:39:22;;;;;;;11.88;7.57;;;;;;;5.98;100.00;95948.16;4950970;29;20031;-71
2023/03/25 06:41:48;;;;;;;12.52;7.60;;;;;;;6.01;100.00;95956.63;4958488;29;20131;-70
2023/03/25 06:44:13;;;;;;;9.38;8.23;;;;;;;6.07;100.00;95951.91;4947172;29;20023;-71
2023/03/25 06:46:38;;;;;;;10.98;7.72;;;;;;;6.04;100.00;95952.97;4925412;29;20088;-70
2023/03/25 06:49:04;;;;;;;9.82;8.35;;;;;;;6.15;100.00;95970.50;4953330;29;20035;-72
2023/03/25 06:51:30;;;;;;;17.20;14.18;;;;;;;6.15;100.00;95975.75;4949601;29;20085;-74
2023/03/25 06:53:55;;;;;;;7.43;6.40;;;;;;;6.20;100.00;95978.84;4932853;29;20508;-72
2023/03/25 06:56:20;;;;;;;13.75;6.82;;;;;;;6.26;100.00;95983.66;4950993;29;20114;-71
2023/03/25 06:58:46;;;;;;;12.10;7.25;;;;;;;6.37;100.00;95980.28;4939518;29;20035;-73
2023/03/25 07:01:11;;;;;;;8.65;6.10;;;;;;;6.44;100.00;95989.38;4958498;29;20059;-73
2023/03/25 07:03:37;;;;;;;8.68;5.68;;;;;;;6.47;100.00;95998.78;4949287;29;20054;-72
2023/03/25 07:06:05;;;;;;;8.90;5.80;;;;;;;6.49;100.00;95986.41;4955552;29;20058;-72
2023/03/25 07:08:31;;;;;;;15.57;9.07;;;;;;;6.62;100.00;95991.59;4948736;29;20028;-72
2023/03/25 07:11:01;;;;;;;13.07;8.43;;;;;;;6.55;100.00;95988.63;4959606;28;20070;-73
2023/03/25 07:13:26;;;;;;;15.77;8.50;;;;;;;6.56;100.00;95986.81;4953221;28;20023;-74
2023/03/25 07:15:54;;;;;;;10.95;6.70;;;;;;;6.63;100.00;95984.59;4953695;29;20038;-73
2023/03/25 07:18:19;;;;;;;15.15;6.93;;;;;;;6.67;100.00;95976.44;4956912;29;21584;-73
2023/03/25 07:20:45;;;;;;;10.10;7.07;;;;;;;6.71;100.00;95970.03;4958187;29;20027;-73
2023/03/25 07:23:10;;;;;;;7.32;6.15;;;;;;;6.83;100.00;95968.28;4957413;29;20035;-72
2023/03/25 07:25:36;;;;;;;19.00;17.10;;;;;;;6.92;100.00;95968.56;4946318;29;20080;-72
2023/03/25 07:28:01;;;;;;;13.13;6.75;;;;;;;7.06;100.00;95964.91;4949954;29;20038;-73
2023/03/25 07:30:26;;;;;;;13.48;12.15;;;;;;;7.12;100.00;95964.50;4952240;29;20472;-70
2023/03/25 07:32:52;;;;;;;10.07;8.30;;;;;;;7.13;100.00;95951.28;4946464;29;20038;-73
2023/03/25 07:35:17;;;;;;;8.80;6.50;;;;;;;7.23;100.00;95954.03;4951756;29;20035;-73
2023/03/25 07:37:42;;;;;;;7.38;5.35;;;;;;;7.25;100.00;95954.75;4947422;29;20480;-74
2023/03/25 07:40:08;;;;;;;10.48;8.45;;;;;;;7.33;100.00;95962.03;4951635;29;20034;-73
2023/03/25 07:42:35;;;;;;;10.40;9.25;;;;;;;7.40;100.00;95963.25;4955607;29;20026;-72
2023/03/25 07:45:01;;;;;;;4.47;3.85;;;;;;;7.58;100.00;95961.03;4946339;28;20031;-73
2023/03/25 07:47:26;;;;;;;7.57;5.55;;;;;;;7.57;100.00;95953.28;4957458;29;20079;-72
2023/03/25 07:49:51;;;;;;;9.48;7.45;;;;;;;7.57;100.00;95953.28;4954302;29;20511;-72
2023/03/25 07:52:17;;;;;;;7.03;5.38;;;;;;;7.63;100.00;95955.44;4931617;29;20504;-71
2023/03/25 07:54:42;;;;;;;7.57;4.75;;;;;;;7.73;100.00;95956.41;4952849;29;20031;-74
2023/03/25 07:57:07;;;;;;;6.93;4.70;;;;;;;7.84;100.00;95952.09;4956007;29;20114;-72
2023/03/25 07:59:33;;;;;;;5.05;3.15;;;;;;;7.98;100.00;95961.53;4957748;29;20031;-71
2023/03/25 08:01:58;;;;;;;5.63;3.38;;;;;;;8.00;100.00;95957.84;4957237;29;20023;-70
2023/03/25 08:04:24;;;;;;;5.38;3.65;;;;;;;8.04;100.00;95955.81;4946909;29;20027;-72
2023/03/25 08:06:49;;;;;;;8.27;4.38;;;;;;;8.12;100.00;95965.72;4957542;29;20094;-71
2023/03/25 08:09:15;;;;;;;6.50;4.10;;;;;;;8.17;100.00;95968.81;4969520;28;20139;-73
2023/03/25 08:11:40;;;;;;;10.65;3.70;;;;;;;8.26;100.00;95962.00;4944948;29;20066;-72
2023/03/25 08:14:05;;;;;;;4.45;2.88;;;;;;;8.33;100.00;95971.03;4956368;29;20027;-71
2023/03/25 08:16:31;;;;;;;3.00;2.70;;;;;;;8.44;100.00;95967.56;4954275;28;20114;-71
2023/03/25 08:18:57;;;;;;;5.10;3.15;;;;;;;8.56;100.00;95961.38;4951139;29;20408;-71
2023/03/25 08:21:26;;;;;;;4.80;3.15;;;;;;;8.69;100.00;95955.13;4947023;29;20130;-70
2023/03/25 08:24:01;;;;;;;7.18;3.08;;;;;;;9.01;100.00;95951.69;4946627;29;20035;-70
2023/03/25 08:26:27;;;;;;;8.68;3.10;;;;;;;9.23;100.00;95952.56;4956096;29;20038;-70
2023/03/25 08:28:56;;;;;;;5.13;3.58;;;;;;;9.30;100.00;95958.97;4923754;29;20042;-70
2023/03/25 08:31:25;;;;;;;7.05;3.40;;;;;;;9.31;100.00;95965.88;4954042;29;20083;-70
2023/03/25 08:33:51;;;;;;;11.30;9.00;;;;;;;9.35;100.00;95980.44;4940874;29;20032;-70
2023/03/25 08:36:18;;;;;;;11.57;8.82;;;;;;;9.26;100.00;95989.09;4954015;29;20113;-70
2023/03/25 08:38:45;;;;;;;11.88;7.97;;;;;;;9.34;100.00;95996.34;4951402;28;20060;-70
2023/03/25 08:41:12;;;;;;;9.85;7.43;;;;;;;9.15;100.00;96001.28;4949494;28;20035;-70
2023/03/25 08:43:37;;;;;;;7.03;5.88;;;;;;;9.27;100.00;95999.44;4941927;29;20511;-71
2023/03/25 08:46:03;;;;;;;6.70;5.13;;;;;;;9.38;95.62;96014.34;4946792;29;20023;-71
2023/03/25 08:48:28;;;;;;;7.78;3.75;;;;;;;9.41;92.57;96029.03;4951621;29;20102;-70
2023/03/25 08:50:54;;;;;;;6.63;4.55;;;;;;;9.31;91.92;96023.69;4945936;29;20035;-70
2023/03/25 08:53:19;;;;;;;6.20;4.38;;;;;;;9.34;86.65;96026.06;4945258;29;20039;-70
2023/03/25 08:55:44;;;;;;;4.88;2.65;;;;;;;9.56;77.04;96022.50;4948127;29;20055;-70
2023/03/25 08:58:10;;;;;;;8.73;3.80;;;;;;;9.40;81.16;96028.19;4949763;29;20094;-70
2023/03/25 09:00:36;;;;;;;5.30;3.88;;;;;;;9.46;76.94;96030.31;4946035;29;20046;-71
2023/03/25 09:03:03;;;;;;;6.40;2.80;;;;;;;9.50;75.70;96027.44;4946009;29;20054;-69
2023/03/25 09:05:29;;;;;;;7.88;3.40;;;;;;;9.67;72.72;96026.03;4951173;29;20023;-72
2023/03/25 09:07:55;;;;;;;4.40;3.45;;;;;;;9.79;72.16;96026.78;4947442;29;20042;-69
2023/03/25 09:10:21;;;;;;;5.55;3.10;;;;;;;10.19;68.63;96039.19;4944767;29;20059;-71
2023/03/25 09:12:46;;;;;;;6.38;2.88;;;;;;;10.17;64.11;96025.34;4953758;29;20027;-68
2023/03/25 09:15:12;;;;;;;6.25;2.45;;;;;;;10.27;63.71;96020.13;4953854;29;20027;-71
2023/03/25 09:17:38;;;;;;;3.85;2.30;;;;;;;10.12;64.66;96007.31;4942269;29;20042;-69
2023/03/25 09:20:07;;;;;;;3.40;2.25;;;;;;;10.24;64.32;96004.59;4945862;29;20047;-70
2023/03/25 09:22:33;;;;;;;8.10;5.15;;;;;;;10.36;71.41;96008.81;4927354;29;20043;-70
2023/03/25 09:24:58;;;;;;;7.20;3.85;;;;;;;10.44;76.77;96000.28;4942175;29;20103;-70
2023/03/25 09:27:24;;;;;;;9.80;5.00;;;;;;;10.43;80.19;96003.88;4942002;29;20031;-69
2023/03/25 09:29:50;;;;;;;10.48;6.50;;;;;;;10.48;83.86;96008.75;4949708;29;20032;-70
2023/03/25 09:32:17;;;;;;;7.07;4.07;;;;;;;10.42;84.91;96007.47;4952626;29;20050;-70
2023/03/25 09:34:43;;;;;;;12.55;4.70;;;;;;;10.45;85.54;95999.31;4956744;28;20027;-69
2023/03/25 09:37:09;;;;;;;4.88;3.90;;;;;;;10.43;84.78;95998.59;4951323;29;20099;-69
2023/03/25 09:39:34;;;;;;;3.08;2.88;;;;;;;10.65;84.87;95991.47;4952030;29;20036;-69
2023/03/25 09:42:25;;;;;;;5.78;3.42;;;;;;;10.85;82.26;95982.63;4942890;29;20042;-70
2023/03/25 09:45:02;;;;;;;7.05;3.30;;;;;;;11.02;79.43;95983.75;4949285;29;20084;-69
2023/03/25 09:47:32;;;;;;;5.82;4.65;;;;;;;10.98;81.52;95986.81;4941006;29;20054;-71
2023/03/25 09:50:00;;;;;;;3.85;2.38;;;;;;;11.16;74.60;95984.34;4947573;29;20092;-69
2023/03/25 09:52:37;;;;;;;6.65;2.50;;;;;;;11.14;66.88;95987.09;4949746;29;20119;-71
2023/03/25 09:55:07;;;;;;;6.28;2.55;;;;;;;11.25;65.12;95998.47;4949297;29;20099;-70
2023/03/25 09:57:44;;;;;;;6.53;4.70;;;;;;;11.55;73.70;95988.75;4949555;29;20064;-71
2023/03/25 10:00:17;;;;;;;6.07;3.63;;;;;;;11.35;74.03;95994.03;4949076;29;20027;-71
2023/03/25 10:02:51;;;;;;;5.25;3.63;;;;;;;11.25;70.62;95985.31;4952496;29;20027;-71
2023/03/25 10:05:37;;;;;;;7.13;3.92;;;;;;;11.26;71.27;95989.59;4954742;29;20042;-71
2023/03/25 10:08:09;;;;;;;3.85;2.45;;;;;;;11.53;61.41;95998.59;4951680;29;20034;-71
2023/03/25 10:10:42;;;;;;;3.25;2.63;;;;;;;11.28;61.20;96004.31;4950586;29;20086;-71
2023/03/25 10:13:36;;;;;;;6.28;3.40;;;;;;;11.31;61.44;95982.94;4954140;29;20500;-71
2023/03/25 10:16:44;;;;;;;4.30;2.40;;;;;;;11.31;58.25;95988.22;4931383;29;20671;-71
2023/03/25 10:19:27;;;;;;;4.15;2.42;;;;;;;11.18;60.04;95998.19;4928904;29;20039;-72
2023/03/25 10:22:10;;;;;;;4.57;2.80;;;;;;;11.28;59.56;95992.94;4948554;29;20130;-71
2023/03/25 10:24:48;;;;;;;5.20;3.13;;;;;;;11.38;59.67;95980.56;4952322;29;20415;-71
2023/03/25 10:27:25;;;;;;;8.68;5.88;;;;;;;11.68;59.94;95978.75;4950858;29;20055;-71
2023/03/25 10:29:57;;;;;;;3.92;2.70;;;;;;;11.99;58.14;95985.63;4955064;29;20015;-71
2023/03/25 10:32:36;;;;;;;4.53;2.53;;;;;;;11.94;55.38;95991.31;4955891;29;20061;-71
2023/03/25 10:35:05;;;;;;;3.85;2.22;;;;;;;12.03;57.48;95982.56;4950823;29;20020;-71
2023/03/25 10:37:34;;;;;;;4.13;2.42;;;;;;;11.91;58.26;95996.88;4943510;29;20049;-72
2023/03/25 10:40:24;;;;;;;4.80;1.98;;;;;;;11.81;57.28;95994.25;4950130;29;20027;-72
2023/03/25 10:43:08;;;;;;;2.28;1.88;;;;;;;11.72;55.85;95995.94;4954580;29;20397;-71
2023/03/25 10:45:34;;;;;;;2.00;1.60;;;;;;;11.49;56.04;96005.94;4952101;29;20027;-71
2023/03/25 10:48:09;;;;;;;4.57;2.65;;;;;;;11.59;55.36;96008.56;4952521;29;20047;-72
2023/03/25 10:50:35;;;;;;;2.60;2.38;;;;;;;11.67;54.99;96014.00;4951468;29;20047;-72
2023/03/25 10:53:02;;;;;;;2.78;2.08;;;;;;;11.70;55.38;96013.72;4952051;29;20069;-71
2023/03/25 10:55:33;;;;;;;3.17;2.55;;;;;;;11.47;58.43;96005.25;4931131;29;20476;-71
2023/03/25 10:58:00;;;;;;;2.50;2.10;;;;;;;11.76;53.30;95999.13;4949708;29;20043;-72
2023/03/25 11:00:26;;;;;;;5.60;3.03;;;;;;;11.83;55.21;96007.31;4948387;29;20031;-71
2023/03/25 11:02:53;;;;;;;3.33;1.58;;;;;;;12.10;51.00;96000.47;4955903;29;20035;-71
2023/03/25 11:05:23;;;;;;;3.60;2.10;;;;;;;12.24;53.96;96002.63;4954049;29;20581;-71
2023/03/25 11:07:50;;;;;;;2.40;1.98;;;;;;;12.51;53.30;96000.16;4953460;29;20039;-71
2023/03/25 11:10:25;;;;;;;2.95;1.98;;;;;;;12.92;52.05;96002.44;4950836;29;20059;-72
2023/03/25 11:12:52;;;;;;;1.75;1.40;;;;;;;12.95;48.27;95997.69;4953862;29;20510;-72
2023/03/25 11:15:25;;;;;;;3.55;2.10;;;;;;;12.97;48.56;95992.28;4956245;29;20622;-72
2023/03/25 11:17:58;;;;;;;3.80;2.03;;;;;;;12.82;50.98;95990.13;4953786;29;20031;-71
2023/03/25 11:20:36;;;;;;;3.47;2.35;;;;;;;13.08;49.56;95989.38;4952150;29;20027;-72
2023/03/25 11:23:13;;;;;;;2.40;1.95;;;;;;;13.69;51.75;95980.84;4950645;29;20031;-71
2023/03/25 11:25:40;;;;;;;7.15;3.20;;;;;;;15.25;51.06;95981.69;4949496;29;20162;-70
2023/03/25 11:28:20;;;;;;;4.55;2.53;;;;;;;16.37;45.36;95973.16;4956011;29;20027;-70
2023/03/25 11:31:13;;;;;;;3.33;1.83;;;;;;;16.08;42.05;95963.09;4948708;29;20019;-70
2023/03/25 11:33:40;;;;;;;2.13;1.52;;;;;;;16.84;42.83;95958.13;4942664;29;20138;-70
2023/03/25 11:36:21;;;;;;;5.88;1.60;;;;;;;17.75;35.86;95954.84;4952068;29;20035;-71
2023/03/25 11:38:52;;;;;;;2.67;1.80;;;;;;;17.20;37.74;95961.28;4953877;29;20118;-70
2023/03/25 11:41:18;;;;;;;2.80;2.08;;;;;;;16.70;38.55;95964.22;4954019;29;20035;-71
2023/03/25 11:43:47;;;;;;;2.30;1.27;;;;;;;16.23;38.93;95958.72;4936618;29;20036;-70
2023/03/25 11:46:16;;;;;;;1.30;1.27;;;;;;;15.90;38.96;95959.63;4944319;29;20031;-70